createdAt,value
2023-09-18T00:00:51.379Z,6.53
2023-09-18T00:03:20.726Z,6.47
2023-09-18T00:05:51.883Z,6.67
2023-09-18T00:08:20.795Z,7.07
2023-09-18T00:10:49.376Z,6.93
2023-09-18T00:13:17.105Z,7.10
2023-09-18T00:15:48.123Z,6.57
2023-09-18T00:18:16.687Z,6.40
2023-09-18T00:20:44.686Z,6.25
2023-09-18T00:23:12.034Z,6.28
2023-09-18T00:25:39.737Z,6.18
2023-09-18T00:28:07.327Z,6.63
2023-09-18T00:30:35.104Z,6.63
2023-09-18T00:33:02.575Z,6.45
2023-09-18T00:35:30.369Z,6.43
2023-09-18T00:37:57.713Z,6.47
2023-09-18T00:40:25.832Z,6.93
2023-09-18T00:42:53.317Z,6.63
2023-09-18T00:45:22.397Z,6.93
2023-09-18T00:47:49.781Z,6.50
2023-09-18T00:50:17.587Z,6.97
2023-09-18T00:52:45.177Z,7.22
2023-09-18T00:55:16.141Z,6.45
2023-09-18T00:57:51.938Z,7.47
2023-09-18T01:00:23.667Z,6.63
2023-09-18T01:02:51.582Z,6.75
2023-09-18T01:05:20.896Z,8.50
2023-09-18T01:07:48.533Z,6.60
2023-09-18T01:10:18.362Z,6.82
2023-09-18T01:12:50.295Z,6.50
2023-09-18T01:15:36.716Z,6.10
2023-09-18T01:18:04.728Z,6.35
2023-09-18T01:20:32.382Z,6.63
2023-09-18T01:22:59.795Z,6.70
2023-09-18T01:25:27.448Z,6.50
2023-09-18T01:27:54.830Z,6.90
2023-09-18T01:30:22.379Z,7.32
2023-09-18T01:32:50.624Z,6.70
2023-09-18T01:35:18.475Z,7.10
2023-09-18T01:37:47.196Z,6.53
2023-09-18T01:40:14.845Z,6.70
2023-09-18T01:42:43.241Z,8.15
2023-09-18T01:45:10.734Z,6.20
2023-09-18T01:47:38.537Z,6.55
2023-09-18T01:50:06.895Z,6.80
2023-09-18T01:52:35.819Z,6.18
2023-09-18T01:55:05.638Z,6.50
2023-09-18T02:00:13.204Z,6.55
2023-09-18T02:02:42.073Z,7.68
2023-09-18T02:05:22.311Z,8.20
2023-09-18T02:07:49.824Z,6.47
2023-09-18T02:10:18.048Z,6.40
2023-09-18T02:12:45.623Z,6.35
2023-09-18T02:15:13.543Z,6.53
2023-09-18T02:17:41.711Z,7.38
2023-09-18T02:20:13.066Z,6.50
2023-09-18T02:22:43.422Z,6.47
2023-09-18T02:25:10.982Z,6.70
2023-09-18T02:27:38.590Z,6.88
2023-09-18T02:30:06.674Z,6.63
2023-09-18T02:32:34.239Z,7.13
2023-09-18T02:35:01.968Z,6.35
2023-09-18T02:37:30.704Z,7.80
2023-09-18T02:39:58.297Z,6.10
2023-09-18T02:42:25.793Z,6.63
2023-09-18T02:44:53.231Z,6.60
2023-09-18T02:47:20.793Z,9.30
2023-09-18T02:49:48.139Z,6.53
2023-09-18T02:52:15.730Z,7.40
2023-09-18T02:54:43.496Z,6.60
2023-09-18T02:57:11.085Z,6.73
2023-09-18T02:59:38.863Z,7.30
2023-09-18T03:02:07.182Z,6.80
2023-09-18T03:04:34.575Z,7.33
2023-09-18T03:07:03.250Z,7.23
2023-09-18T03:09:31.319Z,7.40
2023-09-18T03:11:58.850Z,8.03
2023-09-18T03:14:26.851Z,7.67
2023-09-18T03:16:54.464Z,7.70
2023-09-18T03:19:23.645Z,8.23
2023-09-18T03:21:51.669Z,7.60
2023-09-18T03:24:19.704Z,7.30
2023-09-18T03:26:46.980Z,7.17
2023-09-18T03:29:14.567Z,8.20
2023-09-18T03:31:42.750Z,6.87
2023-09-18T03:34:10.359Z,7.57
2023-09-18T03:36:38.584Z,8.03
2023-09-18T03:39:06.287Z,7.87
2023-09-18T03:41:35.882Z,7.57
2023-09-18T03:44:04.264Z,10.40
2023-09-18T03:46:31.748Z,8.90
2023-09-18T03:48:59.396Z,8.53
2023-09-18T03:51:26.821Z,7.60
2023-09-18T03:53:54.508Z,8.57
2023-09-18T03:56:23.039Z,8.47
2023-09-18T03:58:51.647Z,8.23
2023-09-18T04:01:19.304Z,7.73
2023-09-18T04:03:47.393Z,8.37
2023-09-18T04:06:14.960Z,8.43
2023-09-18T04:08:42.520Z,8.53
2023-09-18T04:11:12.163Z,8.43
2023-09-18T04:13:39.452Z,7.57
2023-09-18T04:16:06.829Z,9.90
2023-09-18T04:18:34.301Z,7.47
2023-09-18T04:21:01.607Z,7.93
2023-09-18T04:23:29.813Z,8.67
2023-09-18T04:25:59.384Z,8.60
2023-09-18T04:28:26.906Z,8.63
2023-09-18T04:30:54.306Z,8.87
2023-09-18T04:33:23.253Z,11.63
2023-09-18T04:35:51.182Z,8.70
2023-09-18T04:38:20.971Z,8.50
2023-09-18T04:40:48.856Z,8.50
2023-09-18T04:43:16.795Z,8.77
2023-09-18T04:45:46.358Z,8.77
2023-09-18T04:48:15.055Z,8.13
2023-09-18T04:50:43.775Z,9.37
2023-09-18T04:53:11.332Z,9.10
2023-09-18T04:55:39.587Z,9.00
2023-09-18T04:58:08.012Z,8.83
2023-09-18T05:00:36.494Z,8.53
2023-09-18T05:03:07.122Z,8.20
2023-09-18T05:05:34.846Z,9.03
2023-09-18T05:08:04.573Z,10.13
2023-09-18T05:10:32.049Z,8.60
2023-09-18T05:13:02.584Z,9.13
2023-09-18T05:15:30.820Z,11.80
2023-09-18T05:17:59.391Z,8.90
2023-09-18T05:20:27.831Z,8.13
2023-09-18T05:22:56.197Z,9.97
2023-09-18T05:25:24.371Z,9.77
2023-09-18T05:27:57.028Z,8.03
2023-09-18T05:30:29.309Z,7.63
2023-09-18T05:33:06.575Z,8.47
2023-09-18T05:35:34.580Z,13.60
2023-09-18T05:38:02.054Z,8.63
2023-09-18T05:40:29.459Z,8.67
2023-09-18T05:42:57.286Z,9.00
2023-09-18T05:45:25.148Z,11.63
2023-09-18T05:47:54.709Z,9.07
2023-09-18T05:50:22.536Z,9.40
2023-09-18T05:52:52.823Z,13.27
2023-09-18T05:55:20.469Z,8.47
2023-09-18T05:57:47.706Z,12.20
2023-09-18T06:00:19.169Z,8.57
2023-09-18T06:02:47.042Z,10.87
2023-09-18T06:05:17.235Z,10.43
2023-09-18T06:07:45.986Z,8.20
2023-09-18T06:10:13.725Z,8.90
2023-09-18T06:12:41.352Z,10.70
2023-09-18T06:15:11.267Z,9.13
2023-09-18T06:17:43.851Z,10.37
2023-09-18T06:20:13.335Z,8.80
2023-09-18T06:22:44.092Z,8.30
2023-09-18T06:25:11.882Z,8.63
2023-09-18T06:27:39.675Z,8.17
2023-09-18T06:30:11.116Z,7.90
2023-09-18T06:32:38.774Z,8.87
2023-09-18T06:35:06.736Z,8.03
2023-09-18T06:37:34.348Z,9.73
2023-09-18T06:40:05.817Z,9.60
2023-09-18T06:42:33.741Z,7.95
2023-09-18T06:45:03.107Z,7.87
2023-09-18T06:47:30.734Z,8.90
2023-09-18T06:50:01.309Z,8.55
2023-09-18T06:52:29.175Z,7.30
2023-09-18T06:54:56.433Z,7.35
2023-09-18T06:57:23.768Z,7.18
2023-09-18T06:59:51.279Z,9.13
2023-09-18T07:02:19.071Z,7.37
2023-09-18T07:04:47.548Z,6.93
2023-09-18T07:07:15.587Z,6.85
2023-09-18T07:10:03.787Z,6.40
2023-09-18T07:12:33.221Z,6.32
2023-09-18T07:15:05.999Z,6.68
2023-09-18T07:17:34.697Z,6.72
2023-09-18T07:20:04.599Z,6.80
2023-09-18T07:22:32.174Z,6.95
2023-09-18T07:25:00.085Z,7.45
2023-09-18T07:27:27.531Z,6.10
2023-09-18T07:29:58.850Z,6.63
2023-09-18T07:32:38.129Z,6.47
2023-09-18T07:35:06.605Z,6.15
2023-09-18T07:37:34.377Z,6.40
2023-09-18T07:40:01.933Z,8.75
2023-09-18T07:42:29.278Z,6.40
2023-09-18T07:44:59.179Z,6.50
2023-09-18T07:47:27.111Z,6.40
2023-09-18T07:49:56.148Z,6.50
2023-09-18T07:52:23.744Z,5.32
2023-09-18T07:54:51.767Z,6.55
2023-09-18T07:57:20.085Z,6.03
2023-09-18T07:59:47.918Z,7.05
2023-09-18T08:02:15.295Z,5.93
2023-09-18T08:04:44.372Z,6.88
2023-09-18T08:07:13.618Z,5.32
2023-09-18T08:09:41.311Z,6.63
2023-09-18T08:12:12.363Z,5.53
2023-09-18T08:14:42.596Z,5.90
2023-09-18T08:17:10.981Z,6.10
2023-09-18T08:19:40.620Z,7.53
2023-09-18T08:22:08.055Z,6.15
2023-09-18T08:24:35.409Z,5.57
2023-09-18T08:27:02.960Z,5.15
2023-09-18T08:29:31.070Z,6.00
2023-09-18T08:31:58.268Z,5.47
2023-09-18T08:34:27.460Z,6.55
2023-09-18T08:36:56.623Z,5.85
2023-09-18T08:39:23.993Z,5.50
2023-09-18T08:41:56.302Z,5.53
2023-09-18T08:44:26.209Z,5.50
2023-09-18T08:46:53.811Z,5.57
2023-09-18T08:49:22.845Z,5.10
2023-09-18T08:51:51.258Z,5.32
2023-09-18T08:54:18.676Z,5.75
2023-09-18T08:56:46.405Z,5.45
2023-09-18T08:59:15.301Z,5.28
2023-09-18T09:01:42.777Z,5.60
2023-09-18T09:04:10.107Z,6.57
2023-09-18T09:06:37.876Z,5.10
2023-09-18T09:09:06.153Z,5.75
2023-09-18T09:11:35.751Z,4.60
2023-09-18T09:14:20.785Z,5.10
2023-09-18T09:16:50.036Z,5.00
2023-09-18T09:19:18.892Z,6.72
2023-09-18T09:21:48.239Z,4.93
2023-09-18T09:24:18.606Z,5.65
2023-09-18T09:26:59.118Z,4.82
2023-09-18T09:29:26.588Z,4.70
2023-09-18T09:31:54.313Z,5.97
2023-09-18T09:34:30.604Z,5.45
2023-09-18T09:36:58.576Z,5.50
2023-09-18T09:39:27.632Z,4.60
2023-09-18T09:41:55.038Z,5.22
2023-09-18T09:44:22.961Z,6.45
2023-09-18T09:46:51.473Z,5.35
2023-09-18T09:49:21.397Z,5.18
2023-09-18T09:51:48.948Z,6.07
2023-09-18T09:54:16.323Z,5.30
2023-09-18T09:56:44.817Z,5.20
2023-09-18T09:59:13.514Z,5.15
2023-09-18T10:01:41.733Z,4.90
2023-09-18T10:04:14.526Z,7.00
2023-09-18T10:06:45.745Z,5.15
2023-09-18T10:09:14.260Z,6.00
2023-09-18T10:11:47.804Z,5.35
2023-09-18T10:14:19.827Z,4.65
2023-09-18T10:16:53.195Z,4.90
2023-09-18T10:19:26.735Z,5.20
2023-09-18T10:21:55.632Z,5.18
2023-09-18T10:24:25.419Z,6.63
2023-09-18T10:27:00.104Z,5.68
2023-09-18T10:29:27.933Z,5.45
2023-09-18T10:31:57.047Z,5.38
2023-09-18T10:34:25.434Z,6.93
2023-09-18T10:36:56.514Z,5.30
2023-09-18T10:39:27.682Z,5.13
2023-09-18T10:41:57.027Z,6.53
2023-09-18T10:44:25.106Z,4.55
2023-09-18T10:46:53.841Z,4.97
2023-09-18T10:49:21.806Z,7.90
2023-09-18T10:51:49.771Z,14.88
2023-09-18T10:54:17.931Z,5.75
2023-09-18T10:56:45.511Z,5.40
2023-09-18T10:59:13.433Z,4.95
2023-09-18T11:01:41.044Z,5.18
2023-09-18T11:04:09.882Z,5.78
2023-09-18T11:07:12.835Z,7.53
2023-09-18T11:09:44.737Z,6.43
2023-09-18T11:12:12.738Z,5.35
2023-09-18T11:14:47.789Z,5.38
2023-09-18T11:17:31.498Z,14.35
2023-09-18T11:20:18.915Z,18.60
2023-09-18T11:22:50.907Z,18.60
2023-09-18T11:25:50.785Z,9.00
2023-09-18T11:28:24.873Z,9.95
2023-09-18T11:30:52.678Z,5.78
2023-09-18T11:33:38.458Z,4.47
2023-09-18T11:36:08.903Z,5.28
2023-09-18T11:38:37.233Z,5.88
2023-09-18T11:41:23.538Z,4.75
2023-09-18T11:43:51.291Z,4.90
2023-09-18T11:46:22.237Z,5.78
2023-09-18T11:48:53.142Z,6.28
2023-09-18T11:51:25.122Z,7.90
2023-09-18T11:53:55.811Z,4.72
2023-09-18T11:56:23.404Z,6.97
2023-09-18T11:58:53.003Z,4.90
2023-09-18T12:01:20.931Z,6.05
2023-09-18T12:03:54.465Z,5.15
2023-09-18T12:06:22.652Z,4.50
2023-09-18T12:08:52.546Z,6.57
2023-09-18T12:11:21.338Z,6.07
2023-09-18T12:13:50.344Z,6.38
2023-09-18T12:16:17.965Z,5.10
2023-09-18T12:18:49.847Z,4.72
2023-09-18T12:21:18.812Z,7.80
2023-09-18T12:23:47.465Z,4.45
2023-09-18T12:26:15.636Z,4.85
2023-09-18T12:28:44.157Z,5.78
2023-09-18T12:31:15.374Z,4.70
2023-09-18T12:33:44.931Z,5.00
2023-09-18T12:36:15.843Z,4.40
2023-09-18T12:38:43.634Z,6.15
2023-09-18T12:41:13.162Z,8.88
2023-09-18T12:43:44.584Z,5.85
2023-09-18T12:46:11.976Z,6.50
2023-09-18T12:48:48.336Z,5.47
2023-09-18T12:51:17.688Z,9.93
2023-09-18T12:53:44.996Z,6.97
2023-09-18T12:56:17.148Z,7.07
2023-09-18T12:59:07.204Z,7.68
2023-09-18T13:01:34.196Z,5.65
2023-09-18T13:04:07.493Z,5.28
2023-09-18T13:06:34.856Z,7.72
2023-09-18T13:09:18.322Z,7.93
2023-09-18T13:11:55.914Z,8.63
2023-09-18T13:14:23.602Z,10.07
2023-09-18T13:16:51.233Z,9.00
2023-09-18T13:19:20.472Z,6.20
2023-09-18T13:21:53.458Z,7.88
2023-09-18T13:24:26.352Z,5.47
2023-09-18T13:26:58.119Z,7.75
2023-09-18T13:29:25.926Z,6.18
2023-09-18T13:31:53.652Z,8.68
2023-09-18T13:34:22.266Z,7.85
2023-09-18T13:36:49.891Z,4.65
2023-09-18T13:39:20.289Z,5.20
2023-09-18T13:41:48.002Z,6.63
2023-09-18T13:44:22.391Z,10.93
2023-09-18T13:46:50.408Z,10.45
2023-09-18T13:49:18.036Z,6.25
2023-09-18T13:51:47.881Z,7.63
2023-09-18T13:54:15.804Z,7.97
2023-09-18T13:56:43.057Z,7.18
2023-09-18T13:59:11.194Z,9.52
2023-09-18T14:01:38.361Z,6.00
2023-09-18T14:04:05.643Z,6.93
2023-09-18T14:06:33.634Z,5.25
2023-09-18T14:09:00.907Z,6.88
2023-09-18T14:11:28.134Z,7.45
2023-09-18T14:13:55.561Z,10.27
2023-09-18T14:16:22.731Z,7.20
2023-09-18T14:18:50.027Z,6.75
2023-09-18T14:21:17.317Z,8.65
2023-09-18T14:23:44.520Z,7.63
2023-09-18T14:26:12.984Z,6.63
2023-09-18T14:28:40.267Z,8.65
2023-09-18T14:31:07.499Z,6.70
2023-09-18T14:33:37.733Z,5.43
2023-09-18T14:36:05.376Z,9.48
2023-09-18T14:38:32.565Z,8.85
2023-09-18T14:41:03.813Z,7.80
2023-09-18T14:43:31.058Z,7.78
2023-09-18T14:45:58.315Z,8.23
2023-09-18T14:48:25.874Z,10.02
2023-09-18T14:50:56.629Z,6.93
2023-09-18T14:53:24.136Z,6.57
2023-09-18T14:55:51.404Z,5.38
2023-09-18T14:58:19.649Z,7.93
2023-09-18T15:00:46.860Z,12.25
2023-09-18T15:03:14.455Z,6.43
2023-09-18T15:05:42.557Z,8.25
2023-09-18T15:08:10.139Z,8.93
2023-09-18T15:10:37.506Z,8.90
2023-09-18T15:13:05.072Z,8.23
2023-09-18T15:15:32.630Z,11.73
2023-09-18T15:18:00.042Z,5.50
2023-09-18T15:20:27.689Z,5.10
2023-09-18T15:22:56.924Z,5.63
2023-09-18T15:25:24.432Z,7.55
2023-09-18T15:27:51.934Z,8.48
2023-09-18T15:30:19.557Z,6.95
2023-09-18T15:32:51.902Z,10.15
2023-09-18T15:35:19.673Z,9.30
2023-09-18T15:37:46.971Z,5.65
2023-09-18T15:40:16.150Z,6.85
2023-09-18T15:42:43.426Z,6.50
2023-09-18T15:45:12.369Z,6.88
2023-09-18T15:47:39.939Z,6.75
2023-09-18T15:50:07.734Z,10.07
2023-09-18T15:52:34.897Z,5.35
2023-09-18T15:55:02.752Z,5.93
2023-09-18T15:57:34.299Z,4.38
2023-09-18T16:00:07.748Z,8.43
2023-09-18T16:02:41.652Z,10.40
2023-09-18T16:05:09.098Z,6.13
2023-09-18T16:07:36.982Z,7.72
2023-09-18T16:10:05.498Z,6.70
2023-09-18T16:12:35.060Z,5.15
2023-09-18T16:15:09.184Z,7.72
2023-09-18T16:17:37.962Z,7.15
2023-09-18T16:20:11.896Z,5.30
2023-09-18T16:22:44.192Z,6.60
2023-09-18T16:25:14.750Z,5.03
2023-09-18T16:27:46.104Z,4.50
2023-09-18T16:30:15.013Z,4.50
2023-09-18T16:32:45.837Z,5.18
2023-09-18T16:35:48.822Z,4.60
2023-09-18T16:38:32.996Z,7.10
2023-09-18T16:41:03.629Z,4.22
2023-09-18T16:43:47.023Z,7.53
2023-09-18T16:46:15.120Z,9.40
2023-09-18T16:48:42.358Z,5.43
2023-09-18T16:51:10.185Z,5.13
2023-09-18T16:53:37.609Z,4.60
2023-09-18T16:56:19.728Z,6.88
2023-09-18T16:58:47.589Z,6.72
2023-09-18T17:01:15.351Z,5.43
2023-09-18T17:03:45.464Z,4.25
2023-09-18T17:06:13.129Z,3.70
2023-09-18T17:08:44.240Z,5.45
2023-09-18T17:11:11.840Z,5.65
2023-09-18T17:13:39.269Z,6.80
2023-09-18T17:16:09.936Z,5.78
2023-09-18T17:18:39.146Z,5.40
2023-09-18T17:21:07.356Z,4.45
2023-09-18T17:23:34.871Z,6.40
2023-09-18T17:28:32.858Z,7.55
2023-09-18T17:31:00.688Z,4.13
2023-09-18T17:33:27.904Z,5.20
2023-09-18T17:35:55.121Z,4.50
2023-09-18T17:38:22.313Z,5.45
2023-09-18T17:40:49.568Z,3.97
2023-09-18T17:43:17.069Z,5.93
2023-09-18T17:45:44.361Z,3.53
2023-09-18T17:48:11.872Z,4.38
2023-09-18T17:50:39.129Z,4.18
2023-09-18T17:53:06.318Z,3.70
2023-09-18T17:55:33.913Z,3.83
2023-09-18T17:58:02.242Z,4.63
2023-09-18T18:00:29.704Z,4.43
2023-09-18T18:02:57.218Z,2.95
2023-09-18T18:05:29.488Z,4.93
2023-09-18T18:07:57.560Z,4.43
2023-09-18T18:10:24.949Z,4.65
2023-09-18T18:12:52.428Z,4.15
2023-09-18T18:15:19.767Z,5.35
2023-09-18T18:17:49.092Z,2.95
2023-09-18T18:20:17.162Z,4.50
2023-09-18T18:22:44.323Z,5.10
2023-09-18T18:25:14.281Z,3.25
2023-09-18T18:27:41.980Z,4.35
2023-09-18T18:30:10.026Z,2.60
2023-09-18T18:32:37.807Z,3.80
2023-09-18T18:35:05.192Z,2.92
2023-09-18T18:37:33.169Z,4.43
2023-09-18T18:40:00.436Z,3.95
2023-09-18T18:42:27.678Z,3.65
2023-09-18T18:44:55.058Z,3.80
2023-09-18T18:47:22.248Z,6.15
2023-09-18T18:49:49.652Z,6.22
2023-09-18T18:52:16.871Z,7.05
2023-09-18T18:54:44.494Z,3.10
2023-09-18T18:57:11.718Z,3.58
2023-09-18T18:59:41.247Z,2.97
2023-09-18T19:02:08.533Z,3.90
2023-09-18T19:04:38.645Z,4.57
2023-09-18T19:07:07.157Z,3.22
2023-09-18T19:09:35.236Z,4.22
2023-09-18T19:12:02.469Z,4.50
2023-09-18T19:14:29.832Z,4.05
2023-09-18T19:16:57.281Z,3.47
2023-09-18T19:19:24.606Z,7.47
2023-09-18T19:21:51.938Z,4.13
2023-09-18T19:24:19.144Z,4.03
2023-09-18T19:26:46.844Z,4.45
2023-09-18T19:29:16.445Z,5.05
2023-09-18T19:31:43.791Z,3.80
2023-09-18T19:34:16.110Z,2.60
2023-09-18T19:36:52.470Z,4.03
2023-09-18T19:39:26.280Z,3.50
2023-09-18T19:41:58.023Z,5.75
2023-09-18T19:44:26.116Z,4.57
2023-09-18T19:46:53.424Z,2.85
2023-09-18T19:49:20.627Z,3.47
2023-09-18T19:51:48.678Z,3.67
2023-09-18T19:54:16.219Z,5.93
2023-09-18T19:56:43.437Z,5.22
2023-09-18T19:59:10.600Z,5.93
2023-09-18T20:01:37.869Z,3.05
2023-09-18T20:04:05.992Z,7.93
2023-09-18T20:06:33.248Z,3.72
2023-09-18T20:09:02.087Z,2.63
2023-09-18T20:11:30.476Z,6.95
2023-09-18T20:13:59.142Z,4.55
2023-09-18T20:16:26.555Z,4.60
2023-09-18T20:18:53.770Z,4.53
2023-09-18T20:21:22.172Z,3.10
2023-09-18T20:23:49.394Z,3.47
2023-09-18T20:26:16.547Z,4.17
2023-09-18T20:28:43.678Z,6.47
2023-09-18T20:31:10.899Z,2.72
2023-09-18T20:33:38.223Z,5.50
2023-09-18T20:36:05.642Z,4.30
2023-09-18T20:38:33.135Z,4.07
2023-09-18T20:41:00.748Z,3.57
2023-09-18T20:43:28.048Z,3.70
2023-09-18T20:45:55.937Z,3.87
2023-09-18T20:48:23.230Z,5.03
2023-09-18T20:50:51.042Z,4.80
2023-09-18T20:53:19.692Z,4.78
2023-09-18T20:55:47.781Z,5.77
2023-09-18T20:58:16.010Z,3.40
2023-09-18T21:00:43.202Z,5.33
2023-09-18T21:03:11.235Z,4.37
2023-09-18T21:05:38.658Z,4.33
2023-09-18T21:08:05.934Z,4.93
2023-09-18T21:10:33.679Z,4.23
2023-09-18T21:13:01.141Z,4.63
2023-09-18T21:15:28.990Z,4.20
2023-09-18T21:17:56.291Z,3.60
2023-09-18T21:20:23.546Z,4.47
2023-09-18T21:22:50.710Z,4.53
2023-09-18T21:25:17.940Z,5.33
2023-09-18T21:27:45.141Z,2.40
2023-09-18T21:30:12.394Z,3.43
2023-09-18T21:32:39.733Z,6.07
2023-09-18T21:35:07.175Z,3.90
2023-09-18T21:37:34.380Z,5.63
2023-09-18T21:40:03.099Z,4.83
2023-09-18T21:42:30.281Z,7.20
2023-09-18T21:44:57.483Z,3.43
2023-09-18T21:47:24.695Z,2.50
2023-09-18T21:49:52.475Z,3.90
2023-09-18T21:52:21.248Z,2.67
2023-09-18T21:54:48.456Z,3.87
2023-09-18T21:57:15.650Z,3.27
2023-09-18T21:59:42.908Z,4.67
2023-09-18T22:02:10.125Z,4.70
2023-09-18T22:04:37.307Z,5.23
2023-09-18T22:07:04.462Z,3.30
2023-09-18T22:09:31.935Z,4.40
2023-09-18T22:12:03.591Z,3.53
2023-09-18T22:14:31.262Z,3.60
2023-09-18T22:16:58.409Z,5.60
2023-09-18T22:19:25.603Z,3.07
2023-09-18T22:21:52.745Z,3.93
2023-09-18T22:24:20.155Z,2.60
2023-09-18T22:26:50.154Z,5.20
2023-09-18T22:29:17.386Z,4.13
2023-09-18T22:31:45.555Z,3.30
2023-09-18T22:34:13.451Z,5.67
2023-09-18T22:36:51.096Z,4.40
2023-09-18T22:39:24.796Z,5.77
2023-09-18T22:41:52.117Z,4.53
2023-09-18T22:44:39.193Z,4.53
2023-09-18T22:47:36.739Z,6.70
2023-09-18T22:50:23.118Z,3.83
2023-09-18T22:52:51.634Z,4.37
2023-09-18T22:55:20.826Z,4.20
2023-09-18T22:57:53.780Z,4.83
2023-09-18T23:00:22.354Z,6.27
2023-09-18T23:02:50.483Z,7.40
2023-09-18T23:05:19.569Z,3.93
2023-09-18T23:07:50.810Z,3.47
2023-09-18T23:10:18.268Z,5.40
2023-09-18T23:12:45.847Z,5.17
2023-09-18T23:15:13.898Z,2.63
2023-09-18T23:17:41.541Z,3.80
2023-09-18T23:20:16.368Z,4.70
2023-09-18T23:22:44.481Z,3.57
2023-09-18T23:25:12.780Z,5.87
2023-09-18T23:27:40.743Z,7.50
2023-09-18T23:30:09.263Z,5.00
2023-09-18T23:32:36.453Z,5.07
2023-09-18T23:35:08.285Z,4.47
2023-09-18T23:37:35.584Z,3.30
2023-09-18T23:40:06.813Z,3.03
2023-09-18T23:42:34.793Z,4.27
2023-09-18T23:45:08.504Z,5.07
2023-09-18T23:47:35.851Z,4.10
2023-09-18T23:50:03.425Z,5.03
2023-09-18T23:52:31.426Z,3.53
2023-09-18T23:54:59.069Z,3.00
2023-09-18T23:57:26.877Z,2.70
2023-09-18T23:59:54.010Z,3.70
